createdAt,value
2018-11-25T00:00:30.549Z,7.30
2018-11-25T00:02:59.033Z,7.30
2018-11-25T00:05:27.449Z,7.30
2018-11-25T00:07:55.871Z,7.30
2018-11-25T00:10:24.233Z,7.40
2018-11-25T00:12:52.625Z,7.50
2018-11-25T00:15:21.035Z,7.50
2018-11-25T00:17:49.394Z,7.30
2018-11-25T00:20:17.763Z,7.20
2018-11-25T00:22:46.172Z,7.10
2018-11-25T00:25:14.976Z,7.30
2018-11-25T00:27:43.371Z,7.40
2018-11-25T00:30:14.620Z,7.40
2018-11-25T00:32:43.071Z,7.40
2018-11-25T00:35:12.689Z,7.40
2018-11-25T00:37:48.058Z,7.40
2018-11-25T00:40:13.178Z,7.50
2018-11-25T00:42:41.604Z,7.50
2018-11-25T00:45:17.256Z,7.40
2018-11-25T00:47:45.707Z,7.40
2018-11-25T00:50:14.601Z,7.40
2018-11-25T00:52:42.961Z,7.30
2018-11-25T00:55:13.582Z,7.30
2018-11-25T00:57:41.953Z,7.20
2018-11-25T01:00:12.357Z,7.20
2018-11-25T01:02:40.772Z,7.20
2018-11-25T01:05:09.765Z,7.30
2018-11-25T01:07:38.164Z,7.40
2018-11-25T01:10:09.347Z,7.30
2018-11-25T01:12:37.723Z,7.20
2018-11-25T01:15:09.300Z,7.30
2018-11-25T01:17:37.847Z,7.30
2018-11-25T01:20:09.257Z,7.30
2018-11-25T01:22:37.749Z,7.30
2018-11-25T01:25:07.313Z,7.40
2018-11-25T01:27:35.709Z,7.30
2018-11-25T01:30:05.083Z,7.40
2018-11-25T01:32:33.511Z,7.30
2018-11-25T01:35:01.895Z,7.20
2018-11-25T01:37:30.264Z,7.30
2018-11-25T01:39:58.817Z,7.30
2018-11-25T01:42:27.297Z,7.40
2018-11-25T01:44:55.870Z,7.40
2018-11-25T01:47:24.264Z,7.50
2018-11-25T01:49:53.248Z,7.50
2018-11-25T01:52:21.753Z,7.50
2018-11-25T01:54:51.240Z,7.30
2018-11-25T01:57:19.736Z,7.40
2018-11-25T01:59:48.112Z,7.50
2018-11-25T02:02:16.469Z,7.50
2018-11-25T02:04:44.820Z,7.40
2018-11-25T02:07:13.329Z,7.30
2018-11-25T02:09:41.704Z,7.40
2018-11-25T02:12:10.085Z,7.40
2018-11-25T02:14:38.510Z,7.40
2018-11-25T02:17:06.897Z,7.40
2018-11-25T02:19:35.296Z,7.50
2018-11-25T02:22:03.720Z,7.60
2018-11-25T02:24:32.072Z,7.50
2018-11-25T02:27:00.508Z,7.40
2018-11-25T02:29:28.843Z,7.40
2018-11-25T02:31:57.304Z,7.50
2018-11-25T02:34:25.648Z,7.40
2018-11-25T02:36:54.010Z,7.30
2018-11-25T02:39:22.355Z,7.20
2018-11-25T02:41:50.763Z,7.40
2018-11-25T02:44:19.121Z,7.50
2018-11-25T02:46:47.477Z,7.50
2018-11-25T02:49:15.780Z,7.60
2018-11-25T02:51:44.119Z,7.70
2018-11-25T02:54:12.528Z,7.70
2018-11-25T02:56:40.960Z,7.70
2018-11-25T02:59:09.336Z,7.60
2018-11-25T03:01:37.701Z,7.50
2018-11-25T03:04:06.210Z,7.50
2018-11-25T03:06:34.634Z,7.60
2018-11-25T03:09:03.039Z,7.60
2018-11-25T03:11:31.415Z,7.60
2018-11-25T03:13:59.821Z,7.60
2018-11-25T03:16:28.172Z,7.70
2018-11-25T03:18:57.076Z,7.70
2018-11-25T03:21:25.431Z,7.70
2018-11-25T03:23:53.855Z,7.80
2018-11-25T03:26:22.241Z,7.70
2018-11-25T03:28:50.627Z,7.60
2018-11-25T03:31:19.057Z,7.40
2018-11-25T03:33:47.417Z,7.30
2018-11-25T03:36:15.840Z,7.20
2018-11-25T03:38:44.208Z,7.10
2018-11-25T03:41:12.586Z,7.10
2018-11-25T03:43:40.932Z,7.20
2018-11-25T03:46:09.248Z,7.30
2018-11-25T03:48:37.623Z,7.30
2018-11-25T03:51:06.187Z,7.30
2018-11-25T03:53:34.553Z,7.40
2018-11-25T03:56:02.949Z,7.40
2018-11-25T03:58:31.288Z,7.40
2018-11-25T04:00:59.696Z,7.30
2018-11-25T04:03:28.060Z,7.30
2018-11-25T04:05:56.407Z,7.40
2018-11-25T04:08:24.863Z,7.30
2018-11-25T04:10:53.235Z,7.30
2018-11-25T04:13:21.617Z,7.30
2018-11-25T04:15:49.983Z,7.30
2018-11-25T04:18:18.352Z,7.30
2018-11-25T04:20:46.748Z,7.30
2018-11-25T04:23:15.083Z,7.30
2018-11-25T04:25:43.438Z,7.30
2018-11-25T04:28:11.773Z,7.20
2018-11-25T04:30:40.147Z,7.10
2018-11-25T04:33:08.509Z,7.10
2018-11-25T04:35:36.959Z,7.10
2018-11-25T04:38:05.430Z,7.00
2018-11-25T04:40:33.776Z,7.20
2018-11-25T04:43:02.188Z,7.20
2018-11-25T04:45:30.606Z,7.10
2018-11-25T04:47:58.936Z,7.10
2018-11-25T04:50:27.401Z,7.10
2018-11-25T04:52:55.738Z,7.30
2018-11-25T04:55:24.123Z,7.20
2018-11-25T04:57:53.051Z,7.10
2018-11-25T05:00:21.480Z,7.20
2018-11-25T05:02:50.559Z,7.30
2018-11-25T05:05:18.930Z,7.20
2018-11-25T05:07:47.286Z,7.20
2018-11-25T05:10:16.540Z,7.20
2018-11-25T05:12:44.963Z,7.30
2018-11-25T05:15:15.292Z,7.40
2018-11-25T05:17:43.718Z,7.40
2018-11-25T05:20:12.750Z,7.50
2018-11-25T05:22:41.126Z,7.40
2018-11-25T05:25:11.745Z,7.40
2018-11-25T05:27:40.122Z,7.40
2018-11-25T05:30:10.972Z,7.40
2018-11-25T05:32:39.316Z,7.40
2018-11-25T05:35:09.300Z,7.40
2018-11-25T05:37:37.721Z,7.30
2018-11-25T05:40:08.218Z,7.40
2018-11-25T05:42:36.567Z,7.20
2018-11-25T05:45:06.847Z,7.30
2018-11-25T05:47:35.242Z,7.30
2018-11-25T05:50:03.654Z,7.30
2018-11-25T05:52:31.999Z,7.40
2018-11-25T05:55:00.351Z,7.40
2018-11-25T05:57:28.685Z,7.40
2018-11-25T05:59:57.056Z,7.40
2018-11-25T06:02:25.412Z,7.50
2018-11-25T06:04:53.794Z,7.50
2018-11-25T06:07:22.120Z,7.50
2018-11-25T06:09:50.520Z,7.50
2018-11-25T06:12:18.862Z,7.40
2018-11-25T06:14:47.291Z,7.40
2018-11-25T06:17:15.622Z,7.40
2018-11-25T06:19:43.989Z,7.40
2018-11-25T06:22:12.360Z,7.30
2018-11-25T06:24:40.728Z,7.30
2018-11-25T06:27:09.094Z,7.30
2018-11-25T06:29:37.460Z,7.30
2018-11-25T06:32:05.861Z,7.20
2018-11-25T06:34:34.217Z,7.10
2018-11-25T06:37:02.563Z,7.20
2018-11-25T06:39:30.914Z,7.20
2018-11-25T06:41:59.250Z,7.20
2018-11-25T06:44:27.649Z,7.10
2018-11-25T06:46:56.089Z,7.10
2018-11-25T06:49:24.458Z,7.10
2018-11-25T06:51:52.811Z,7.10
2018-11-25T06:54:21.163Z,7.20
2018-11-25T06:56:49.496Z,7.20
2018-11-25T06:59:17.861Z,7.00
2018-11-25T07:01:46.262Z,6.90
2018-11-25T07:04:14.619Z,6.90
2018-11-25T07:06:42.956Z,7.00
2018-11-25T07:09:11.306Z,7.10
2018-11-25T07:11:39.658Z,6.90
2018-11-25T07:14:07.996Z,6.90
2018-11-25T07:16:36.435Z,6.80
2018-11-25T07:19:05.042Z,7.00
2018-11-25T07:21:33.468Z,7.10
2018-11-25T07:24:01.828Z,7.20
2018-11-25T07:26:30.365Z,7.10
2018-11-25T07:28:58.714Z,7.00
2018-11-25T07:31:27.120Z,7.10
2018-11-25T07:33:55.546Z,7.10
2018-11-25T07:36:24.208Z,7.20
2018-11-25T07:38:52.871Z,7.20
2018-11-25T07:41:21.517Z,7.30
2018-11-25T07:43:49.979Z,7.20
2018-11-25T07:46:18.333Z,6.90
2018-11-25T07:48:46.732Z,6.80
2018-11-25T07:51:15.081Z,6.70
2018-11-25T07:53:43.456Z,6.70
2018-11-25T07:56:11.837Z,6.80
2018-11-25T07:58:40.187Z,6.90
2018-11-25T08:01:08.695Z,6.90
2018-11-25T08:03:37.065Z,7.00
2018-11-25T08:06:05.466Z,6.90
2018-11-25T08:08:33.886Z,6.90
2018-11-25T08:11:02.245Z,6.90
2018-11-25T08:13:30.650Z,7.00
2018-11-25T08:15:59.027Z,7.10
2018-11-25T08:18:27.391Z,7.00
2018-11-25T08:20:55.743Z,7.00
2018-11-25T08:23:24.073Z,7.00
2018-11-25T08:25:52.428Z,7.20
2018-11-25T08:28:20.772Z,7.10
2018-11-25T08:30:49.154Z,7.30
2018-11-25T08:33:17.533Z,7.30
2018-11-25T08:35:45.887Z,7.30
2018-11-25T08:38:14.221Z,7.40
2018-11-25T08:40:42.599Z,7.50
2018-11-25T08:43:11.277Z,7.50
2018-11-25T08:45:39.641Z,7.60
2018-11-25T08:48:08.015Z,7.60
2018-11-25T08:50:36.384Z,7.70
2018-11-25T08:53:04.850Z,8.00
2018-11-25T08:55:33.233Z,8.80
2018-11-25T08:58:01.610Z,9.80
2018-11-25T09:00:30.307Z,10.30
2018-11-25T09:02:58.683Z,11.10
2018-11-25T09:05:27.019Z,10.90
2018-11-25T09:07:55.368Z,10.40
2018-11-25T09:10:23.733Z,9.90
2018-11-25T09:12:56.590Z,9.60
2018-11-25T09:15:27.405Z,9.20
2018-11-25T09:17:55.773Z,9.00
2018-11-25T09:20:24.153Z,8.80
2018-11-25T09:22:52.877Z,8.60
2018-11-25T09:25:30.347Z,8.50
2018-11-25T09:27:59.937Z,8.40
2018-11-25T09:30:29.383Z,8.20
2018-11-25T09:32:57.771Z,8.30
2018-11-25T09:35:26.208Z,8.80
2018-11-25T09:37:54.568Z,9.60
2018-11-25T09:40:26.920Z,10.40
2018-11-25T09:42:55.868Z,10.50
2018-11-25T09:45:24.255Z,10.70
2018-11-25T09:47:52.681Z,10.80
2018-11-25T09:50:22.093Z,11.10
2018-11-25T09:52:50.543Z,10.40
2018-11-25T09:55:24.107Z,10.70
2018-11-25T09:57:53.721Z,10.40
2018-11-25T10:00:25.184Z,9.50
2018-11-25T10:02:53.591Z,9.10
2018-11-25T10:05:21.977Z,9.50
2018-11-25T10:07:50.364Z,9.70
2018-11-25T10:10:24.749Z,9.50
2018-11-25T10:12:53.712Z,9.10
2018-11-25T10:15:25.258Z,8.70
2018-11-25T10:17:59.378Z,8.50
2018-11-25T10:20:26.219Z,8.40
2018-11-25T10:22:54.630Z,8.40
2018-11-25T10:25:23.688Z,8.30
2018-11-25T10:27:52.163Z,8.30
2018-11-25T10:30:22.612Z,8.20
2018-11-25T10:32:53.896Z,8.10
2018-11-25T10:35:22.281Z,8.00
2018-11-25T10:37:50.744Z,8.00
2018-11-25T10:40:20.202Z,8.00
2018-11-25T10:42:48.642Z,8.00
2018-11-25T10:45:19.125Z,8.10
2018-11-25T10:47:47.529Z,8.20
2018-11-25T10:50:17.859Z,8.20
2018-11-25T10:52:46.297Z,8.10
2018-11-25T10:55:15.664Z,8.10
2018-11-25T10:57:44.956Z,8.20
2018-11-25T11:00:24.350Z,8.20
2018-11-25T11:02:58.042Z,8.20
2018-11-25T11:05:31.891Z,8.20
2018-11-25T11:08:00.273Z,8.20
2018-11-25T11:10:28.655Z,8.20
2018-11-25T11:12:57.042Z,8.10
2018-11-25T11:15:25.631Z,8.30
2018-11-25T11:17:54.077Z,8.30
2018-11-25T11:20:22.610Z,8.20
2018-11-25T11:22:50.955Z,8.30
2018-11-25T11:25:19.309Z,8.30
2018-11-25T11:27:47.782Z,8.50
2018-11-25T11:30:16.127Z,8.70
2018-11-25T11:32:45.885Z,8.80
2018-11-25T11:35:14.426Z,8.90
2018-11-25T11:37:42.798Z,9.00
2018-11-25T11:40:12.181Z,8.90
2018-11-25T11:42:40.546Z,9.10
2018-11-25T11:45:16.017Z,9.10
2018-11-25T11:47:45.142Z,9.10
2018-11-25T11:50:15.610Z,9.20
2018-11-25T11:52:43.940Z,9.00
2018-11-25T11:55:13.496Z,9.20
2018-11-25T11:57:42.407Z,9.30
2018-11-25T12:00:14.159Z,9.20
2018-11-25T12:02:42.644Z,9.40
2018-11-25T12:05:11.137Z,9.30
2018-11-25T12:07:39.521Z,9.30
2018-11-25T12:10:10.152Z,9.30
2018-11-25T12:12:38.646Z,9.30
2018-11-25T12:15:15.791Z,9.20
2018-11-25T12:17:44.171Z,9.20
2018-11-25T12:20:12.672Z,9.30
2018-11-25T12:22:41.057Z,9.40
2018-11-25T12:25:12.100Z,9.40
2018-11-25T12:27:40.624Z,9.30
2018-11-25T12:30:12.980Z,9.30
2018-11-25T12:32:41.846Z,9.20
2018-11-25T12:35:11.760Z,9.20
2018-11-25T12:37:40.189Z,9.10
2018-11-25T12:40:16.128Z,9.10
2018-11-25T12:42:47.571Z,9.20
2018-11-25T12:45:16.767Z,9.20
2018-11-25T12:47:45.118Z,9.30
2018-11-25T12:50:15.603Z,9.30
2018-11-25T12:52:43.992Z,9.30
2018-11-25T12:55:14.464Z,9.50
2018-11-25T12:57:42.882Z,9.60
2018-11-25T13:00:16.729Z,9.60
2018-11-25T13:02:45.173Z,9.50
2018-11-25T13:05:13.913Z,9.50
2018-11-25T13:07:42.267Z,9.80
2018-11-25T13:10:12.632Z,9.70
2018-11-25T13:12:41.362Z,9.80
2018-11-25T13:15:10.013Z,9.80
2018-11-25T13:17:38.422Z,9.70
2018-11-25T13:20:10.289Z,9.70
2018-11-25T13:22:39.197Z,9.70
2018-11-25T13:25:09.160Z,9.70
2018-11-25T13:27:37.680Z,9.60
2018-11-25T13:30:21.879Z,9.70
2018-11-25T13:32:51.272Z,9.60
2018-11-25T13:35:19.672Z,9.60
2018-11-25T13:37:48.068Z,9.50
2018-11-25T13:40:16.903Z,9.40
2018-11-25T13:42:45.482Z,9.40
2018-11-25T13:45:13.841Z,9.40
2018-11-25T13:47:42.268Z,9.50
2018-11-25T13:50:11.781Z,9.40
2018-11-25T13:52:40.287Z,9.40
2018-11-25T13:55:17.757Z,9.30
2018-11-25T13:57:46.141Z,9.50
2018-11-25T14:00:24.091Z,9.50
2018-11-25T14:02:52.482Z,9.60
2018-11-25T14:05:20.844Z,9.60
2018-11-25T14:07:49.258Z,9.60
2018-11-25T14:10:21.651Z,9.50
2018-11-25T14:12:50.102Z,9.40
2018-11-25T14:15:18.473Z,9.40
2018-11-25T14:17:46.803Z,9.40
2018-11-25T14:20:15.193Z,9.30
2018-11-25T14:22:43.631Z,9.40
2018-11-25T14:25:14.745Z,9.40
2018-11-25T14:27:43.612Z,9.30
2018-11-25T14:30:16.577Z,9.30
2018-11-25T14:32:45.067Z,9.30
2018-11-25T14:35:14.996Z,9.30
2018-11-25T14:37:43.440Z,9.30
2018-11-25T14:40:13.273Z,9.20
2018-11-25T14:42:41.734Z,9.20
2018-11-25T14:45:12.541Z,9.10
2018-11-25T14:47:41.005Z,9.10
2018-11-25T14:50:13.359Z,9.10
2018-11-25T14:52:42.469Z,9.00
2018-11-25T14:55:12.271Z,9.00
2018-11-25T14:57:41.520Z,9.00
2018-11-25T15:00:14.109Z,9.00
2018-11-25T15:02:43.107Z,9.00
2018-11-25T15:05:19.856Z,9.00
2018-11-25T15:07:48.221Z,9.00
2018-11-25T15:10:16.603Z,8.90
2018-11-25T15:12:45.073Z,8.90
2018-11-25T15:15:14.594Z,8.80
2018-11-25T15:17:44.049Z,8.80
2018-11-25T15:20:13.044Z,8.70
2018-11-25T15:22:43.119Z,8.70
2018-11-25T15:25:17.086Z,8.60
2018-11-25T15:27:45.618Z,8.60
2018-11-25T15:30:14.134Z,8.50
2018-11-25T15:32:43.163Z,8.60
2018-11-25T15:35:12.861Z,8.40
2018-11-25T15:37:43.106Z,8.40
2018-11-25T15:40:20.166Z,8.30
2018-11-25T15:42:49.659Z,8.20
2018-11-25T15:45:18.013Z,8.30
2018-11-25T15:47:49.189Z,8.40
2018-11-25T15:50:20.912Z,8.30
2018-11-25T15:52:49.562Z,8.30
2018-11-25T15:55:17.954Z,8.30
2018-11-25T15:57:46.339Z,8.20
2018-11-25T16:00:20.240Z,8.20
2018-11-25T16:02:48.661Z,8.20
2018-11-25T16:05:20.285Z,8.10
2018-11-25T16:07:48.641Z,8.20
2018-11-25T16:10:17.062Z,8.10
2018-11-25T16:12:46.861Z,8.10
2018-11-25T16:15:18.282Z,8.10
2018-11-25T16:17:46.641Z,8.10
2018-11-25T16:20:17.282Z,8.20
2018-11-25T16:22:46.308Z,8.20
2018-11-25T16:25:22.887Z,8.10
2018-11-25T16:27:57.273Z,8.10
2018-11-25T16:30:25.701Z,8.10
2018-11-25T16:32:58.295Z,8.10
2018-11-25T16:35:26.641Z,8.20
2018-11-25T16:37:55.763Z,8.10
2018-11-25T16:40:24.109Z,8.10
2018-11-25T16:42:52.499Z,8.10
2018-11-25T16:45:20.892Z,8.00
2018-11-25T16:47:49.268Z,8.10
2018-11-25T16:50:25.073Z,8.10
2018-11-25T16:52:46.653Z,8.10
2018-11-25T16:55:15.339Z,8.10
2018-11-25T16:57:44.335Z,8.10
2018-11-25T17:00:15.890Z,8.10
2018-11-25T17:02:44.254Z,8.10
2018-11-25T17:05:17.888Z,8.10
2018-11-25T17:07:47.612Z,8.10
2018-11-25T17:10:16.000Z,8.00
2018-11-25T17:12:44.419Z,8.00
2018-11-25T17:15:14.756Z,8.00
2018-11-25T17:17:43.187Z,7.90
2018-11-25T17:20:11.593Z,7.90
2018-11-25T17:22:40.066Z,7.90
2018-11-25T17:25:10.006Z,7.90
2018-11-25T17:27:38.347Z,7.90
2018-11-25T17:30:14.015Z,7.90
2018-11-25T17:32:42.826Z,7.90
2018-11-25T17:35:14.835Z,8.00
2018-11-25T17:37:43.187Z,7.90
2018-11-25T17:40:11.571Z,7.90
2018-11-25T17:42:40.034Z,8.00
2018-11-25T17:45:09.911Z,8.00
2018-11-25T17:47:38.355Z,7.90
2018-11-25T17:50:18.785Z,7.80
2018-11-25T17:52:47.651Z,7.80
2018-11-25T17:55:16.585Z,7.80
2018-11-25T17:57:44.903Z,7.90
2018-11-25T18:00:17.799Z,7.80
2018-11-25T18:02:46.206Z,7.80
2018-11-25T18:05:14.656Z,7.90
2018-11-25T18:07:43.039Z,7.80
2018-11-25T18:10:12.612Z,7.80
2018-11-25T18:12:41.486Z,7.80
2018-11-25T18:15:13.874Z,7.80
2018-11-25T18:17:50.673Z,7.80
2018-11-25T18:20:19.143Z,7.80
2018-11-25T18:22:48.648Z,7.90
2018-11-25T18:25:17.033Z,7.90
2018-11-25T18:27:45.375Z,7.90
2018-11-25T18:30:15.921Z,7.90
2018-11-25T18:32:45.047Z,8.00
2018-11-25T18:35:13.438Z,7.90
2018-11-25T18:37:41.859Z,7.90
2018-11-25T18:40:11.701Z,7.90
2018-11-25T18:42:40.255Z,7.90
2018-11-25T18:45:11.099Z,8.00
2018-11-25T18:47:39.619Z,7.90
2018-11-25T18:50:10.221Z,7.90
2018-11-25T18:52:38.715Z,7.90
2018-11-25T18:55:05.971Z,7.80
2018-11-25T18:57:34.563Z,7.80
2018-11-25T19:00:03.050Z,7.80
2018-11-25T19:02:41.934Z,7.80
2018-11-25T19:05:10.437Z,7.70
2018-11-25T19:07:38.857Z,7.70
2018-11-25T19:10:11.193Z,7.80
2018-11-25T19:12:44.325Z,7.70
2018-11-25T19:15:09.691Z,7.70
2018-11-25T19:17:38.055Z,7.70
2018-11-25T19:20:13.091Z,7.70
2018-11-25T19:22:41.841Z,7.70
2018-11-25T19:25:14.743Z,7.70
2018-11-25T19:27:43.743Z,7.60
2018-11-25T19:30:14.247Z,7.60
2018-11-25T19:32:43.383Z,7.60
2018-11-25T19:35:12.911Z,7.60
2018-11-25T19:37:41.838Z,7.60
2018-11-25T19:40:14.376Z,7.60
2018-11-25T19:42:43.097Z,7.50
2018-11-25T19:45:14.110Z,7.50
2018-11-25T19:47:42.554Z,7.40
2018-11-25T19:50:12.910Z,7.40
2018-11-25T19:52:41.345Z,7.50
2018-11-25T19:55:10.034Z,7.50
2018-11-25T19:57:38.404Z,7.50
2018-11-25T20:00:10.743Z,7.50
2018-11-25T20:02:39.119Z,7.40
2018-11-25T20:05:09.760Z,7.30
2018-11-25T20:07:38.195Z,7.30
2018-11-25T20:10:09.444Z,7.30
2018-11-25T20:12:42.169Z,7.40
2018-11-25T20:15:11.838Z,7.30
2018-11-25T20:17:40.577Z,7.40
2018-11-25T20:20:10.632Z,7.30
2018-11-25T20:22:39.037Z,7.40
2018-11-25T20:25:09.054Z,7.30
2018-11-25T20:27:42.839Z,7.40
2018-11-25T20:30:14.345Z,7.30
2018-11-25T20:32:48.051Z,7.40
2018-11-25T20:35:22.291Z,7.30
2018-11-25T20:37:56.097Z,7.30
2018-11-25T20:40:24.443Z,7.30
2018-11-25T20:42:52.808Z,7.30
2018-11-25T20:45:27.240Z,7.30
2018-11-25T20:47:56.826Z,7.30
2018-11-25T20:50:25.227Z,7.20
2018-11-25T20:52:58.874Z,7.20
2018-11-25T20:55:27.648Z,7.10
2018-11-25T20:57:56.040Z,7.20
2018-11-25T21:00:25.825Z,7.20
2018-11-25T21:02:54.291Z,7.20
2018-11-25T21:05:23.834Z,7.20
2018-11-25T21:07:50.978Z,7.20
2018-11-25T21:10:20.076Z,7.20
2018-11-25T21:12:50.054Z,7.10
2018-11-25T21:15:18.472Z,7.10
2018-11-25T21:17:46.815Z,7.00
2018-11-25T21:20:20.432Z,7.00
2018-11-25T21:22:48.791Z,7.00
2018-11-25T21:25:18.573Z,7.00
2018-11-25T21:27:47.082Z,7.00
2018-11-25T21:30:20.931Z,7.00
2018-11-25T21:32:50.598Z,7.00
2018-11-25T21:35:19.080Z,7.00
2018-11-25T21:37:47.531Z,7.00
2018-11-25T21:40:18.960Z,7.00
2018-11-25T21:42:47.499Z,7.00
2018-11-25T21:45:17.515Z,6.90
2018-11-25T21:47:46.227Z,7.00
2018-11-25T21:50:17.761Z,6.90
2018-11-25T21:52:46.183Z,7.00
2018-11-25T21:55:15.919Z,7.00
2018-11-25T21:57:44.379Z,7.00
2018-11-25T22:00:13.846Z,7.00
2018-11-25T22:02:42.351Z,7.00
2018-11-25T22:05:11.282Z,7.10
2018-11-25T22:07:39.726Z,7.10
2018-11-25T22:10:09.524Z,7.20
2018-11-25T22:12:38.814Z,7.20
2018-11-25T22:15:09.630Z,7.20
2018-11-25T22:17:38.076Z,7.20
2018-11-25T22:20:08.316Z,7.20
2018-11-25T22:22:36.727Z,7.20
2018-11-25T22:25:07.370Z,7.30
2018-11-25T22:27:35.801Z,7.40
2018-11-25T22:30:05.600Z,7.40
2018-11-25T22:32:33.975Z,7.30
2018-11-25T22:35:02.326Z,7.30
2018-11-25T22:37:30.709Z,7.40
2018-11-25T22:39:59.161Z,7.40
2018-11-25T22:42:27.501Z,7.20
2018-11-25T22:44:55.886Z,7.40
2018-11-25T22:47:25.180Z,7.40
2018-11-25T22:49:53.640Z,7.30
2018-11-25T22:52:22.242Z,7.40
2018-11-25T22:54:50.564Z,7.30
2018-11-25T22:57:18.935Z,7.40
2018-11-25T22:59:47.331Z,7.40
2018-11-25T23:02:15.743Z,7.40
2018-11-25T23:04:55.411Z,7.40
2018-11-25T23:07:24.035Z,7.40
2018-11-25T23:09:52.427Z,7.40
2018-11-25T23:12:21.098Z,7.40
2018-11-25T23:14:49.556Z,7.30
2018-11-25T23:17:17.920Z,7.30
2018-11-25T23:19:46.337Z,7.40
2018-11-25T23:22:14.727Z,7.40
2018-11-25T23:24:43.140Z,7.30
2018-11-25T23:27:11.479Z,7.40
2018-11-25T23:29:39.962Z,7.40
2018-11-25T23:32:08.481Z,7.40
2018-11-25T23:34:36.963Z,7.40
2018-11-25T23:37:05.525Z,7.40
2018-11-25T23:39:33.885Z,7.40
2018-11-25T23:42:02.433Z,7.40
2018-11-25T23:44:30.800Z,7.40
2018-11-25T23:46:59.234Z,7.40
2018-11-25T23:49:28.205Z,7.40
2018-11-25T23:51:56.586Z,7.40
2018-11-25T23:54:24.960Z,7.30
2018-11-25T23:56:53.322Z,7.30
2018-11-25T23:59:21.997Z,7.30
